sensor_id;sensor_type;location;lat;lon;timestamp;temperature;humidity
5134;DHT22;2585;48.696;10.066;2023-06-04T00:02:07;9.60;1.00
5134;DHT22;2585;48.696;10.066;2023-06-04T00:04:34;9.50;1.00
5134;DHT22;2585;48.696;10.066;2023-06-04T00:07:01;9.40;1.00
5134;DHT22;2585;48.696;10.066;2023-06-04T00:09:27;9.40;1.00
5134;DHT22;2585;48.696;10.066;2023-06-04T00:11:55;9.40;1.00
5134;DHT22;2585;48.696;10.066;2023-06-04T00:14:24;9.40;1.00
5134;DHT22;2585;48.696;10.066;2023-06-04T00:16:50;9.40;1.00
5134;DHT22;2585;48.696;10.066;2023-06-04T00:19:17;9.40;1.00
5134;DHT22;2585;48.696;10.066;2023-06-04T00:21:45;9.30;1.00
5134;DHT22;2585;48.696;10.066;2023-06-04T00:24:12;9.30;1.00
5134;DHT22;2585;48.696;10.066;2023-06-04T00:26:39;9.30;1.00
5134;DHT22;2585;48.696;10.066;2023-06-04T00:29:06;9.30;1.00
5134;DHT22;2585;48.696;10.066;2023-06-04T00:31:33;9.30;1.00
5134;DHT22;2585;48.696;10.066;2023-06-04T00:34:00;9.30;1.00
5134;DHT22;2585;48.696;10.066;2023-06-04T00:36:27;9.20;1.00
5134;DHT22;2585;48.696;10.066;2023-06-04T00:38:54;9.20;1.00
5134;DHT22;2585;48.696;10.066;2023-06-04T00:41:21;9.20;1.00
5134;DHT22;2585;48.696;10.066;2023-06-04T00:43:48;9.20;1.00
5134;DHT22;2585;48.696;10.066;2023-06-04T00:46:26;9.20;1.00
5134;DHT22;2585;48.696;10.066;2023-06-04T00:48:54;9.10;1.00
5134;DHT22;2585;48.696;10.066;2023-06-04T00:51:22;9.10;1.00
5134;DHT22;2585;48.696;10.066;2023-06-04T00:53:49;9.10;1.00
5134;DHT22;2585;48.696;10.066;2023-06-04T00:56:17;9.10;1.00
5134;DHT22;2585;48.696;10.066;2023-06-04T00:58:45;9.10;1.00
5134;DHT22;2585;48.696;10.066;2023-06-04T01:01:26;9.00;1.00
5134;DHT22;2585;48.696;10.066;2023-06-04T01:03:55;9.00;1.00
5134;DHT22;2585;48.696;10.066;2023-06-04T01:06:30;9.10;1.00
5134;DHT22;2585;48.696;10.066;2023-06-04T01:08:59;9.10;1.00
5134;DHT22;2585;48.696;10.066;2023-06-04T01:11:34;9.00;1.00
5134;DHT22;2585;48.696;10.066;2023-06-04T01:14:03;9.00;2.50
5134;DHT22;2585;48.696;10.066;2023-06-04T01:16:37;9.00;6.90
5134;DHT22;2585;48.696;10.066;2023-06-04T01:19:22;8.90;8.70
5134;DHT22;2585;48.696;10.066;2023-06-04T01:21:52;8.90;14.70
5134;DHT22;2585;48.696;10.066;2023-06-04T01:24:21;8.80;22.80
5134;DHT22;2585;48.696;10.066;2023-06-04T01:26:53;8.80;28.10
5134;DHT22;2585;48.696;10.066;2023-06-04T01:29:23;8.80;34.00
5134;DHT22;2585;48.696;10.066;2023-06-04T01:31:52;8.70;35.80
5134;DHT22;2585;48.696;10.066;2023-06-04T01:34:19;8.60;44.30
5134;DHT22;2585;48.696;10.066;2023-06-04T01:36:46;8.60;57.10
5134;DHT22;2585;48.696;10.066;2023-06-04T01:39:13;8.60;58.00
5134;DHT22;2585;48.696;10.066;2023-06-04T01:41:40;8.60;61.60
5134;DHT22;2585;48.696;10.066;2023-06-04T01:44:07;8.50;62.00
5134;DHT22;2585;48.696;10.066;2023-06-04T01:46:34;8.50;64.50
5134;DHT22;2585;48.696;10.066;2023-06-04T01:49:01;8.50;66.20
5134;DHT22;2585;48.696;10.066;2023-06-04T01:51:28;8.50;66.60
5134;DHT22;2585;48.696;10.066;2023-06-04T01:53:54;8.40;65.50
5134;DHT22;2585;48.696;10.066;2023-06-04T01:56:21;8.40;64.30
5134;DHT22;2585;48.696;10.066;2023-06-04T01:58:48;8.30;63.70
5134;DHT22;2585;48.696;10.066;2023-06-04T02:01:15;8.30;64.40
5134;DHT22;2585;48.696;10.066;2023-06-04T02:03:43;8.30;63.80
5134;DHT22;2585;48.696;10.066;2023-06-04T02:06:11;8.20;63.50
5134;DHT22;2585;48.696;10.066;2023-06-04T02:08:38;8.20;63.40
5134;DHT22;2585;48.696;10.066;2023-06-04T02:11:06;8.20;63.80
5134;DHT22;2585;48.696;10.066;2023-06-04T02:13:34;8.00;61.40
5134;DHT22;2585;48.696;10.066;2023-06-04T02:16:02;8.00;62.00
5134;DHT22;2585;48.696;10.066;2023-06-04T02:18:29;7.90;62.20
5134;DHT22;2585;48.696;10.066;2023-06-04T02:20:56;7.90;61.80
5134;DHT22;2585;48.696;10.066;2023-06-04T02:23:23;7.90;63.20
5134;DHT22;2585;48.696;10.066;2023-06-04T02:25:50;7.90;62.80
5134;DHT22;2585;48.696;10.066;2023-06-04T02:28:17;7.90;62.50
5134;DHT22;2585;48.696;10.066;2023-06-04T02:30:44;7.80;61.00
5134;DHT22;2585;48.696;10.066;2023-06-04T02:33:13;7.80;60.70
5134;DHT22;2585;48.696;10.066;2023-06-04T02:35:40;7.70;61.20
5134;DHT22;2585;48.696;10.066;2023-06-04T02:38:07;7.60;62.90
5134;DHT22;2585;48.696;10.066;2023-06-04T02:40:34;7.60;63.90
5134;DHT22;2585;48.696;10.066;2023-06-04T02:43:01;7.60;63.60
5134;DHT22;2585;48.696;10.066;2023-06-04T02:45:28;7.50;63.20
5134;DHT22;2585;48.696;10.066;2023-06-04T02:47:57;7.50;62.90
5134;DHT22;2585;48.696;10.066;2023-06-04T02:50:24;7.50;62.00
5134;DHT22;2585;48.696;10.066;2023-06-04T02:52:51;7.40;61.60
5134;DHT22;2585;48.696;10.066;2023-06-04T02:55:18;7.40;63.80
5134;DHT22;2585;48.696;10.066;2023-06-04T02:57:45;7.30;65.90
5134;DHT22;2585;48.696;10.066;2023-06-04T03:00:13;7.30;67.10
5134;DHT22;2585;48.696;10.066;2023-06-04T03:02:46;7.30;67.70
5134;DHT22;2585;48.696;10.066;2023-06-04T03:05:15;7.30;68.00
5134;DHT22;2585;48.696;10.066;2023-06-04T03:07:45;7.30;67.40
5134;DHT22;2585;48.696;10.066;2023-06-04T03:10:13;7.30;67.10
5134;DHT22;2585;48.696;10.066;2023-06-04T03:12:40;7.30;66.40
5134;DHT22;2585;48.696;10.066;2023-06-04T03:15:07;7.20;65.90
5134;DHT22;2585;48.696;10.066;2023-06-04T03:17:34;7.30;66.80
5134;DHT22;2585;48.696;10.066;2023-06-04T03:20:02;7.20;67.10
5134;DHT22;2585;48.696;10.066;2023-06-04T03:22:31;7.10;67.80
5134;DHT22;2585;48.696;10.066;2023-06-04T03:24:57;7.10;69.20
5134;DHT22;2585;48.696;10.066;2023-06-04T03:27:24;7.10;69.80
5134;DHT22;2585;48.696;10.066;2023-06-04T03:29:51;7.10;71.30
5134;DHT22;2585;48.696;10.066;2023-06-04T03:32:18;7.10;71.80
5134;DHT22;2585;48.696;10.066;2023-06-04T03:34:45;7.20;72.60
5134;DHT22;2585;48.696;10.066;2023-06-04T03:37:12;7.20;72.70
5134;DHT22;2585;48.696;10.066;2023-06-04T03:39:38;7.20;72.90
5134;DHT22;2585;48.696;10.066;2023-06-04T03:42:05;7.20;73.00
5134;DHT22;2585;48.696;10.066;2023-06-04T03:44:32;7.30;73.00
5134;DHT22;2585;48.696;10.066;2023-06-04T03:46:59;7.30;72.30
5134;DHT22;2585;48.696;10.066;2023-06-04T03:49:26;7.30;72.30
5134;DHT22;2585;48.696;10.066;2023-06-04T03:51:53;7.30;72.50
5134;DHT22;2585;48.696;10.066;2023-06-04T03:54:20;7.30;71.90
5134;DHT22;2585;48.696;10.066;2023-06-04T03:56:47;7.40;71.80
5134;DHT22;2585;48.696;10.066;2023-06-04T03:59:14;7.40;71.70
5134;DHT22;2585;48.696;10.066;2023-06-04T04:01:42;7.50;71.80
5134;DHT22;2585;48.696;10.066;2023-06-04T04:04:09;7.60;71.40
5134;DHT22;2585;48.696;10.066;2023-06-04T04:06:36;7.60;70.30
5134;DHT22;2585;48.696;10.066;2023-06-04T04:09:03;7.60;69.90
5134;DHT22;2585;48.696;10.066;2023-06-04T04:11:32;7.70;70.30
5134;DHT22;2585;48.696;10.066;2023-06-04T04:13:59;7.80;69.90
5134;DHT22;2585;48.696;10.066;2023-06-04T04:16:27;7.90;69.30
5134;DHT22;2585;48.696;10.066;2023-06-04T04:18:54;8.00;68.90
5134;DHT22;2585;48.696;10.066;2023-06-04T04:21:21;8.00;66.90
5134;DHT22;2585;48.696;10.066;2023-06-04T04:23:50;8.00;66.20
5134;DHT22;2585;48.696;10.066;2023-06-04T04:26:18;8.00;66.80
5134;DHT22;2585;48.696;10.066;2023-06-04T04:28:44;8.00;67.50
5134;DHT22;2585;48.696;10.066;2023-06-04T04:31:11;8.10;66.60
5134;DHT22;2585;48.696;10.066;2023-06-04T04:33:38;8.10;66.30
5134;DHT22;2585;48.696;10.066;2023-06-04T04:36:07;8.10;67.10
5134;DHT22;2585;48.696;10.066;2023-06-04T04:38:40;8.20;69.60
5134;DHT22;2585;48.696;10.066;2023-06-04T04:41:07;8.20;66.60
5134;DHT22;2585;48.696;10.066;2023-06-04T04:43:36;8.30;62.70
5134;DHT22;2585;48.696;10.066;2023-06-04T04:46:04;8.50;62.20
5134;DHT22;2585;48.696;10.066;2023-06-04T04:48:32;8.60;63.20
5134;DHT22;2585;48.696;10.066;2023-06-04T04:50:59;8.50;54.60
5134;DHT22;2585;48.696;10.066;2023-06-04T04:53:26;8.70;49.70
5134;DHT22;2585;48.696;10.066;2023-06-04T04:55:54;8.70;24.70
5134;DHT22;2585;48.696;10.066;2023-06-04T04:58:21;8.80;37.90
5134;DHT22;2585;48.696;10.066;2023-06-04T05:00:47;8.90;10.10
5134;DHT22;2585;48.696;10.066;2023-06-04T05:03:14;9.00;5.50
5134;DHT22;2585;48.696;10.066;2023-06-04T05:05:42;9.00;12.00
5134;DHT22;2585;48.696;10.066;2023-06-04T05:08:09;9.10;15.30
5134;DHT22;2585;48.696;10.066;2023-06-04T05:10:35;9.20;15.30
5134;DHT22;2585;48.696;10.066;2023-06-04T05:13:02;9.20;20.00
5134;DHT22;2585;48.696;10.066;2023-06-04T05:15:31;9.30;12.80
5134;DHT22;2585;48.696;10.066;2023-06-04T05:17:58;9.40;12.60
5134;DHT22;2585;48.696;10.066;2023-06-04T05:20:28;9.40;3.30
5134;DHT22;2585;48.696;10.066;2023-06-04T05:22:56;9.50;1.00
5134;DHT22;2585;48.696;10.066;2023-06-04T05:25:23;9.60;1.00
5134;DHT22;2585;48.696;10.066;2023-06-04T05:27:50;9.70;1.00
5134;DHT22;2585;48.696;10.066;2023-06-04T05:30:17;9.90;1.00
5134;DHT22;2585;48.696;10.066;2023-06-04T05:32:44;10.00;1.00
5134;DHT22;2585;48.696;10.066;2023-06-04T05:35:11;10.20;1.00
5134;DHT22;2585;48.696;10.066;2023-06-04T05:37:38;10.30;90.20
5134;DHT22;2585;48.696;10.066;2023-06-04T05:40:07;10.40;83.60
5134;DHT22;2585;48.696;10.066;2023-06-04T05:42:34;10.60;1.00
5134;DHT22;2585;48.696;10.066;2023-06-04T05:45:01;10.70;1.00
5134;DHT22;2585;48.696;10.066;2023-06-04T05:47:28;10.80;56.30
5134;DHT22;2585;48.696;10.066;2023-06-04T05:49:56;11.00;1.00
5134;DHT22;2585;48.696;10.066;2023-06-04T05:52:23;11.20;1.00
5134;DHT22;2585;48.696;10.066;2023-06-04T05:54:51;11.50;1.00
5134;DHT22;2585;48.696;10.066;2023-06-04T05:57:17;11.70;1.00
5134;DHT22;2585;48.696;10.066;2023-06-04T05:59:44;11.90;1.00
5134;DHT22;2585;48.696;10.066;2023-06-04T06:02:12;12.20;77.10
5134;DHT22;2585;48.696;10.066;2023-06-04T06:04:40;12.40;74.10
5134;DHT22;2585;48.696;10.066;2023-06-04T06:07:07;12.70;82.90
5134;DHT22;2585;48.696;10.066;2023-06-04T06:09:34;12.90;1.00
5134;DHT22;2585;48.696;10.066;2023-06-04T06:12:02;13.20;1.00
5134;DHT22;2585;48.696;10.066;2023-06-04T06:14:29;13.50;66.80
5134;DHT22;2585;48.696;10.066;2023-06-04T06:16:56;13.70;88.00
5134;DHT22;2585;48.696;10.066;2023-06-04T06:19:23;13.90;1.00
5134;DHT22;2585;48.696;10.066;2023-06-04T06:21:50;14.10;92.30
5134;DHT22;2585;48.696;10.066;2023-06-04T06:24:17;14.20;1.00
5134;DHT22;2585;48.696;10.066;2023-06-04T06:26:44;14.20;23.40
5134;DHT22;2585;48.696;10.066;2023-06-04T06:29:11;14.40;80.10
5134;DHT22;2585;48.696;10.066;2023-06-04T06:31:38;14.50;80.20
5134;DHT22;2585;48.696;10.066;2023-06-04T06:34:04;14.50;48.50
5134;DHT22;2585;48.696;10.066;2023-06-04T06:36:31;14.60;1.00
5134;DHT22;2585;48.696;10.066;2023-06-04T06:38:59;15.00;1.00
5134;DHT22;2585;48.696;10.066;2023-06-04T06:41:26;15.50;64.70
5134;DHT22;2585;48.696;10.066;2023-06-04T06:43:53;15.50;1.00
5134;DHT22;2585;48.696;10.066;2023-06-04T06:46:20;15.70;1.00
5134;DHT22;2585;48.696;10.066;2023-06-04T06:48:47;15.90;1.00
5134;DHT22;2585;48.696;10.066;2023-06-04T06:51:15;16.10;1.00
5134;DHT22;2585;48.696;10.066;2023-06-04T06:53:42;16.30;1.00
5134;DHT22;2585;48.696;10.066;2023-06-04T06:56:09;16.70;1.00
5134;DHT22;2585;48.696;10.066;2023-06-04T06:58:36;17.20;1.00
5134;DHT22;2585;48.696;10.066;2023-06-04T07:01:03;17.60;93.00
5134;DHT22;2585;48.696;10.066;2023-06-04T07:03:30;17.80;85.40
5134;DHT22;2585;48.696;10.066;2023-06-04T07:05:58;18.00;83.40
5134;DHT22;2585;48.696;10.066;2023-06-04T07:08:24;18.20;75.90
5134;DHT22;2585;48.696;10.066;2023-06-04T07:10:51;18.00;68.00
5134;DHT22;2585;48.696;10.066;2023-06-04T07:13:18;18.30;71.10
5134;DHT22;2585;48.696;10.066;2023-06-04T07:15:45;18.80;71.10
5134;DHT22;2585;48.696;10.066;2023-06-04T07:18:12;19.10;61.70
5134;DHT22;2585;48.696;10.066;2023-06-04T07:20:39;19.30;55.60
5134;DHT22;2585;48.696;10.066;2023-06-04T07:23:06;19.10;24.40
5134;DHT22;2585;48.696;10.066;2023-06-04T07:25:34;19.00;24.40
5134;DHT22;2585;48.696;10.066;2023-06-04T07:28:01;19.30;25.00
5134;DHT22;2585;48.696;10.066;2023-06-04T07:30:31;19.70;22.40
5134;DHT22;2585;48.696;10.066;2023-06-04T07:33:01;19.60;2.10
5134;DHT22;2585;48.696;10.066;2023-06-04T07:35:27;20.10;1.00
5134;DHT22;2585;48.696;10.066;2023-06-04T07:37:54;20.60;1.00
5134;DHT22;2585;48.696;10.066;2023-06-04T07:40:21;21.00;1.00
5134;DHT22;2585;48.696;10.066;2023-06-04T07:42:48;21.40;1.00
5134;DHT22;2585;48.696;10.066;2023-06-04T07:45:15;21.80;1.00
5134;DHT22;2585;48.696;10.066;2023-06-04T07:47:43;21.90;1.00
5134;DHT22;2585;48.696;10.066;2023-06-04T07:50:10;21.70;1.00
5134;DHT22;2585;48.696;10.066;2023-06-04T07:52:37;21.90;1.00
5134;DHT22;2585;48.696;10.066;2023-06-04T07:55:04;21.40;1.00
5134;DHT22;2585;48.696;10.066;2023-06-04T07:57:31;21.10;1.00
5134;DHT22;2585;48.696;10.066;2023-06-04T07:59:59;21.80;1.00
5134;DHT22;2585;48.696;10.066;2023-06-04T08:02:26;22.00;1.00
5134;DHT22;2585;48.696;10.066;2023-06-04T08:04:53;21.60;1.00
5134;DHT22;2585;48.696;10.066;2023-06-04T08:07:20;22.00;1.00
5134;DHT22;2585;48.696;10.066;2023-06-04T08:09:47;21.70;1.00
5134;DHT22;2585;48.696;10.066;2023-06-04T08:12:15;22.20;1.00
5134;DHT22;2585;48.696;10.066;2023-06-04T08:14:42;22.10;1.00
5134;DHT22;2585;48.696;10.066;2023-06-04T08:17:09;22.10;1.00
5134;DHT22;2585;48.696;10.066;2023-06-04T08:19:36;22.30;1.00
5134;DHT22;2585;48.696;10.066;2023-06-04T08:22:04;23.00;1.00
5134;DHT22;2585;48.696;10.066;2023-06-04T08:24:30;22.90;1.00
5134;DHT22;2585;48.696;10.066;2023-06-04T08:26:57;23.00;1.00
5134;DHT22;2585;48.696;10.066;2023-06-04T08:29:25;23.70;1.00
5134;DHT22;2585;48.696;10.066;2023-06-04T08:31:52;23.60;1.00
5134;DHT22;2585;48.696;10.066;2023-06-04T08:34:19;23.60;94.40
5134;DHT22;2585;48.696;10.066;2023-06-04T08:36:46;23.80;94.20
5134;DHT22;2585;48.696;10.066;2023-06-04T08:39:13;23.20;92.30
5134;DHT22;2585;48.696;10.066;2023-06-04T08:41:45;23.20;92.30
5134;DHT22;2585;48.696;10.066;2023-06-04T08:44:13;22.60;91.70
5134;DHT22;2585;48.696;10.066;2023-06-04T08:46:41;22.80;91.90
5134;DHT22;2585;48.696;10.066;2023-06-04T08:49:08;23.60;92.40
5134;DHT22;2585;48.696;10.066;2023-06-04T08:51:37;24.10;92.20
5134;DHT22;2585;48.696;10.066;2023-06-04T08:54:08;24.00;92.10
5134;DHT22;2585;48.696;10.066;2023-06-04T08:56:35;24.10;90.30
5134;DHT22;2585;48.696;10.066;2023-06-04T08:59:05;23.70;88.80
5134;DHT22;2585;48.696;10.066;2023-06-04T09:01:35;23.70;89.80
5134;DHT22;2585;48.696;10.066;2023-06-04T09:04:06;24.00;90.10
5134;DHT22;2585;48.696;10.066;2023-06-04T09:06:40;24.70;89.50
5134;DHT22;2585;48.696;10.066;2023-06-04T09:09:09;25.20;90.10
5134;DHT22;2585;48.696;10.066;2023-06-04T09:11:53;25.30;88.10
5134;DHT22;2585;48.696;10.066;2023-06-04T09:14:20;25.70;87.80
5134;DHT22;2585;48.696;10.066;2023-06-04T09:16:51;25.60;85.80
5134;DHT22;2585;48.696;10.066;2023-06-04T09:19:19;25.80;83.00
5134;DHT22;2585;48.696;10.066;2023-06-04T09:21:56;25.50;82.50
5134;DHT22;2585;48.696;10.066;2023-06-04T09:24:26;25.50;82.40
5134;DHT22;2585;48.696;10.066;2023-06-04T09:27:13;26.10;82.70
5134;DHT22;2585;48.696;10.066;2023-06-04T09:29:52;25.90;80.90
5134;DHT22;2585;48.696;10.066;2023-06-04T09:32:26;25.30;79.50
5134;DHT22;2585;48.696;10.066;2023-06-04T09:37:41;26.30;79.80
5134;DHT22;2585;48.696;10.066;2023-06-04T09:40:09;25.50;77.00
5134;DHT22;2585;48.696;10.066;2023-06-04T09:42:47;25.20;78.30
5134;DHT22;2585;48.696;10.066;2023-06-04T09:45:27;25.60;79.50
5134;DHT22;2585;48.696;10.066;2023-06-04T09:47:55;26.20;78.40
5134;DHT22;2585;48.696;10.066;2023-06-04T09:50:35;26.50;77.00
5134;DHT22;2585;48.696;10.066;2023-06-04T09:53:18;27.00;78.50
5134;DHT22;2585;48.696;10.066;2023-06-04T09:55:59;27.30;77.50
5134;DHT22;2585;48.696;10.066;2023-06-04T09:58:28;27.30;75.60
5134;DHT22;2585;48.696;10.066;2023-06-04T10:01:00;26.90;74.00
5134;DHT22;2585;48.696;10.066;2023-06-04T10:03:35;26.80;74.00
5134;DHT22;2585;48.696;10.066;2023-06-04T10:06:04;26.80;73.00
5134;DHT22;2585;48.696;10.066;2023-06-04T10:08:32;27.00;72.50
5134;DHT22;2585;48.696;10.066;2023-06-04T10:11:01;26.90;71.40
5134;DHT22;2585;48.696;10.066;2023-06-04T10:13:31;27.70;73.40
5134;DHT22;2585;48.696;10.066;2023-06-04T10:16:02;27.70;72.30
5134;DHT22;2585;48.696;10.066;2023-06-04T10:18:30;27.80;71.80
5134;DHT22;2585;48.696;10.066;2023-06-04T10:20:57;28.20;72.00
5134;DHT22;2585;48.696;10.066;2023-06-04T10:23:25;28.50;72.20
5134;DHT22;2585;48.696;10.066;2023-06-04T10:25:52;28.50;71.30
5134;DHT22;2585;48.696;10.066;2023-06-04T10:28:21;28.40;69.60
5134;DHT22;2585;48.696;10.066;2023-06-04T10:30:50;26.80;67.50
5134;DHT22;2585;48.696;10.066;2023-06-04T10:33:20;26.20;67.60
5134;DHT22;2585;48.696;10.066;2023-06-04T10:35:55;25.20;66.80
5134;DHT22;2585;48.696;10.066;2023-06-04T10:38:24;25.80;70.00
5134;DHT22;2585;48.696;10.066;2023-06-04T10:40:52;26.90;69.20
5134;DHT22;2585;48.696;10.066;2023-06-04T10:43:19;27.40;71.50
5134;DHT22;2585;48.696;10.066;2023-06-04T10:45:46;27.10;68.90
5134;DHT22;2585;48.696;10.066;2023-06-04T10:48:13;26.20;67.30
5134;DHT22;2585;48.696;10.066;2023-06-04T10:50:51;25.40;67.30
5134;DHT22;2585;48.696;10.066;2023-06-04T10:53:19;25.90;70.40
5134;DHT22;2585;48.696;10.066;2023-06-04T10:55:47;27.10;70.10
5134;DHT22;2585;48.696;10.066;2023-06-04T10:58:15;27.60;68.50
5134;DHT22;2585;48.696;10.066;2023-06-04T11:00:44;27.00;67.00
5134;DHT22;2585;48.696;10.066;2023-06-04T11:03:16;28.10;68.40
5134;DHT22;2585;48.696;10.066;2023-06-04T11:05:45;28.70;67.40
5134;DHT22;2585;48.696;10.066;2023-06-04T11:08:13;28.00;67.10
5134;DHT22;2585;48.696;10.066;2023-06-04T11:10:45;28.70;67.90
5134;DHT22;2585;48.696;10.066;2023-06-04T11:13:12;29.20;67.30
5134;DHT22;2585;48.696;10.066;2023-06-04T11:15:43;29.30;66.70
5134;DHT22;2585;48.696;10.066;2023-06-04T11:18:14;28.10;64.90
5134;DHT22;2585;48.696;10.066;2023-06-04T11:20:43;29.00;66.20
5134;DHT22;2585;48.696;10.066;2023-06-04T11:23:12;28.50;64.70
5134;DHT22;2585;48.696;10.066;2023-06-04T11:25:39;28.00;65.20
5134;DHT22;2585;48.696;10.066;2023-06-04T11:28:16;26.90;64.20
5134;DHT22;2585;48.696;10.066;2023-06-04T11:31:01;26.00;65.50
5134;DHT22;2585;48.696;10.066;2023-06-04T11:33:45;26.60;66.50
5134;DHT22;2585;48.696;10.066;2023-06-04T11:38:56;28.30;65.80
5134;DHT22;2585;48.696;10.066;2023-06-04T11:41:28;29.10;64.70
5134;DHT22;2585;48.696;10.066;2023-06-04T11:43:56;29.00;65.00
5134;DHT22;2585;48.696;10.066;2023-06-04T11:46:23;29.10;65.60
5134;DHT22;2585;48.696;10.066;2023-06-04T11:48:51;29.60;64.80
5134;DHT22;2585;48.696;10.066;2023-06-04T11:51:20;29.80;63.30
5134;DHT22;2585;48.696;10.066;2023-06-04T11:53:47;28.40;61.40
5134;DHT22;2585;48.696;10.066;2023-06-04T11:56:15;28.70;64.00
5134;DHT22;2585;48.696;10.066;2023-06-04T11:58:43;28.90;63.30
5134;DHT22;2585;48.696;10.066;2023-06-04T12:01:10;28.90;62.30
5134;DHT22;2585;48.696;10.066;2023-06-04T12:03:39;28.70;61.70
5134;DHT22;2585;48.696;10.066;2023-06-04T12:06:33;29.00;61.80
5134;DHT22;2585;48.696;10.066;2023-06-04T12:09:00;29.70;63.00
5134;DHT22;2585;48.696;10.066;2023-06-04T12:11:29;29.70;62.00
5134;DHT22;2585;48.696;10.066;2023-06-04T12:13:59;29.50;60.80
5134;DHT22;2585;48.696;10.066;2023-06-04T12:16:26;29.00;61.70
5134;DHT22;2585;48.696;10.066;2023-06-04T12:19:08;28.70;60.90
5134;DHT22;2585;48.696;10.066;2023-06-04T12:21:35;28.90;60.60
5134;DHT22;2585;48.696;10.066;2023-06-04T12:26:34;27.40;57.40
5134;DHT22;2585;48.696;10.066;2023-06-04T12:29:15;26.10;55.60
5134;DHT22;2585;48.696;10.066;2023-06-04T12:31:44;25.80;58.90
5134;DHT22;2585;48.696;10.066;2023-06-04T12:34:15;25.10;56.80
5134;DHT22;2585;48.696;10.066;2023-06-04T12:36:44;25.00;60.90
5134;DHT22;2585;48.696;10.066;2023-06-04T12:39:11;24.70;61.20
5134;DHT22;2585;48.696;10.066;2023-06-04T12:41:37;24.80;61.30
5134;DHT22;2585;48.696;10.066;2023-06-04T12:44:04;26.00;62.10
5134;DHT22;2585;48.696;10.066;2023-06-04T12:46:31;27.10;61.30
5134;DHT22;2585;48.696;10.066;2023-06-04T12:48:58;27.20;60.10
5134;DHT22;2585;48.696;10.066;2023-06-04T12:51:25;27.40;60.00
5134;DHT22;2585;48.696;10.066;2023-06-04T12:53:52;27.20;58.90
5134;DHT22;2585;48.696;10.066;2023-06-04T12:56:19;26.60;57.70
5134;DHT22;2585;48.696;10.066;2023-06-04T12:58:46;25.70;53.80
5134;DHT22;2585;48.696;10.066;2023-06-04T13:01:14;25.50;59.60
5134;DHT22;2585;48.696;10.066;2023-06-04T13:03:41;25.50;60.60
5134;DHT22;2585;48.696;10.066;2023-06-04T13:06:08;25.20;60.90
5134;DHT22;2585;48.696;10.066;2023-06-04T13:08:36;25.00;59.50
5134;DHT22;2585;48.696;10.066;2023-06-04T13:11:03;25.00;60.70
5134;DHT22;2585;48.696;10.066;2023-06-04T13:13:31;25.00;60.40
5134;DHT22;2585;48.696;10.066;2023-06-04T13:15:58;25.00;60.50
5134;DHT22;2585;48.696;10.066;2023-06-04T13:18:25;25.10;61.00
5134;DHT22;2585;48.696;10.066;2023-06-04T13:20:51;26.30;61.30
5134;DHT22;2585;48.696;10.066;2023-06-04T13:23:18;26.60;55.80
5134;DHT22;2585;48.696;10.066;2023-06-04T13:25:45;27.40;59.80
5134;DHT22;2585;48.696;10.066;2023-06-04T13:28:12;27.20;54.30
5134;DHT22;2585;48.696;10.066;2023-06-04T13:30:39;26.50;50.90
5134;DHT22;2585;48.696;10.066;2023-06-04T13:33:06;25.60;53.60
5134;DHT22;2585;48.696;10.066;2023-06-04T13:35:34;25.30;51.00
5134;DHT22;2585;48.696;10.066;2023-06-04T13:38:03;25.00;54.20
5134;DHT22;2585;48.696;10.066;2023-06-04T13:40:31;24.90;61.30
5134;DHT22;2585;48.696;10.066;2023-06-04T13:42:58;24.60;56.40
5134;DHT22;2585;48.696;10.066;2023-06-04T13:45:25;25.30;59.90
5134;DHT22;2585;48.696;10.066;2023-06-04T13:47:51;26.30;58.50
5134;DHT22;2585;48.696;10.066;2023-06-04T13:50:21;27.10;60.60
5134;DHT22;2585;48.696;10.066;2023-06-04T13:52:47;27.60;57.80
5134;DHT22;2585;48.696;10.066;2023-06-04T13:55:14;27.80;55.20
5134;DHT22;2585;48.696;10.066;2023-06-04T13:57:41;28.50;59.20
5134;DHT22;2585;48.696;10.066;2023-06-04T14:00:08;29.10;58.10
5134;DHT22;2585;48.696;10.066;2023-06-04T14:02:36;28.90;52.80
5134;DHT22;2585;48.696;10.066;2023-06-04T14:05:04;28.70;53.30
5134;DHT22;2585;48.696;10.066;2023-06-04T14:07:32;28.40;51.30
5134;DHT22;2585;48.696;10.066;2023-06-04T14:09:59;28.40;49.20
5134;DHT22;2585;48.696;10.066;2023-06-04T14:12:26;27.50;45.50
5134;DHT22;2585;48.696;10.066;2023-06-04T14:14:52;27.50;47.40
5134;DHT22;2585;48.696;10.066;2023-06-04T14:17:19;27.30;45.80
5134;DHT22;2585;48.696;10.066;2023-06-04T14:19:46;26.50;43.40
5134;DHT22;2585;48.696;10.066;2023-06-04T14:22:13;26.60;44.30
5134;DHT22;2585;48.696;10.066;2023-06-04T14:24:40;26.90;45.40
5134;DHT22;2585;48.696;10.066;2023-06-04T14:27:08;26.50;43.90
5134;DHT22;2585;48.696;10.066;2023-06-04T14:29:36;27.00;46.10
5134;DHT22;2585;48.696;10.066;2023-06-04T14:32:06;27.60;46.50
5134;DHT22;2585;48.696;10.066;2023-06-04T14:34:33;27.70;45.40
5134;DHT22;2585;48.696;10.066;2023-06-04T14:37:00;27.60;44.90
5134;DHT22;2585;48.696;10.066;2023-06-04T14:39:27;27.40;43.70
5134;DHT22;2585;48.696;10.066;2023-06-04T14:41:54;27.40;42.30
5134;DHT22;2585;48.696;10.066;2023-06-04T14:44:21;27.30;41.10
5134;DHT22;2585;48.696;10.066;2023-06-04T14:46:49;26.30;39.10
5134;DHT22;2585;48.696;10.066;2023-06-04T14:49:17;26.40;42.10
5134;DHT22;2585;48.696;10.066;2023-06-04T14:51:45;26.70;42.80
5134;DHT22;2585;48.696;10.066;2023-06-04T14:54:12;26.30;43.70
5134;DHT22;2585;48.696;10.066;2023-06-04T14:56:39;26.40;41.10
5134;DHT22;2585;48.696;10.066;2023-06-04T14:59:06;26.60;43.30
5134;DHT22;2585;48.696;10.066;2023-06-04T15:01:35;26.40;43.80
5134;DHT22;2585;48.696;10.066;2023-06-04T15:04:04;26.50;45.70
5134;DHT22;2585;48.696;10.066;2023-06-04T15:06:31;26.40;47.10
5134;DHT22;2585;48.696;10.066;2023-06-04T15:08:58;26.50;44.60
5134;DHT22;2585;48.696;10.066;2023-06-04T15:11:25;26.40;42.50
5134;DHT22;2585;48.696;10.066;2023-06-04T15:13:55;26.50;43.50
5134;DHT22;2585;48.696;10.066;2023-06-04T15:16:23;26.40;41.50
5134;DHT22;2585;48.696;10.066;2023-06-04T15:18:50;26.20;42.90
5134;DHT22;2585;48.696;10.066;2023-06-04T15:21:17;26.00;42.00
5134;DHT22;2585;48.696;10.066;2023-06-04T15:23:44;25.80;42.70
5134;DHT22;2585;48.696;10.066;2023-06-04T15:26:16;26.00;44.30
5134;DHT22;2585;48.696;10.066;2023-06-04T15:28:43;25.70;43.20
5134;DHT22;2585;48.696;10.066;2023-06-04T15:31:10;25.60;42.60
5134;DHT22;2585;48.696;10.066;2023-06-04T15:33:37;25.50;42.90
5134;DHT22;2585;48.696;10.066;2023-06-04T15:36:04;25.30;42.80
5134;DHT22;2585;48.696;10.066;2023-06-04T15:38:31;25.20;42.60
5134;DHT22;2585;48.696;10.066;2023-06-04T15:40:59;25.00;41.90
5134;DHT22;2585;48.696;10.066;2023-06-04T15:43:26;25.00;43.40
5134;DHT22;2585;48.696;10.066;2023-06-04T15:45:53;25.00;43.80
5134;DHT22;2585;48.696;10.066;2023-06-04T15:48:20;24.90;44.50
5134;DHT22;2585;48.696;10.066;2023-06-04T15:50:48;25.00;44.70
5134;DHT22;2585;48.696;10.066;2023-06-04T15:53:14;25.00;44.50
5134;DHT22;2585;48.696;10.066;2023-06-04T15:55:41;24.70;42.20
5134;DHT22;2585;48.696;10.066;2023-06-04T15:58:08;24.80;44.70
5134;DHT22;2585;48.696;10.066;2023-06-04T16:00:35;24.50;44.00
5134;DHT22;2585;48.696;10.066;2023-06-04T16:03:02;24.50;44.60
5134;DHT22;2585;48.696;10.066;2023-06-04T16:05:29;24.40;45.90
5134;DHT22;2585;48.696;10.066;2023-06-04T16:07:55;24.20;44.50
5134;DHT22;2585;48.696;10.066;2023-06-04T16:10:22;23.80;43.70